sensor_id;sensor_type;location;lat;lon;timestamp;P1;durP1;ratioP1;P2;durP2;ratioP2
15312;SDS011;7757;52.626;4.746;2022-07-03T00:01:50;9.35;;;1.80;;
15312;SDS011;7757;52.626;4.746;2022-07-03T00:04:17;6.80;;;1.60;;
15312;SDS011;7757;52.626;4.746;2022-07-03T00:06:45;4.57;;;1.40;;
15312;SDS011;7757;52.626;4.746;2022-07-03T00:09:12;5.28;;;1.42;;
15312;SDS011;7757;52.626;4.746;2022-07-03T00:11:38;6.63;;;1.80;;
15312;SDS011;7757;52.626;4.746;2022-07-03T00:14:05;6.57;;;1.70;;
15312;SDS011;7757;52.626;4.746;2022-07-03T00:16:32;5.45;;;1.50;;
15312;SDS011;7757;52.626;4.746;2022-07-03T00:18:59;6.10;;;1.52;;
15312;SDS011;7757;52.626;4.746;2022-07-03T00:21:27;5.68;;;1.60;;
15312;SDS011;7757;52.626;4.746;2022-07-03T00:23:56;6.28;;;1.60;;
15312;SDS011;7757;52.626;4.746;2022-07-03T00:26:28;8.30;;;1.60;;
15312;SDS011;7757;52.626;4.746;2022-07-03T00:28:56;10.93;;;1.70;;
15312;SDS011;7757;52.626;4.746;2022-07-03T00:31:26;5.60;;;1.42;;
15312;SDS011;7757;52.626;4.746;2022-07-03T00:33:54;8.02;;;1.70;;
15312;SDS011;7757;52.626;4.746;2022-07-03T00:36:24;6.50;;;1.60;;
15312;SDS011;7757;52.626;4.746;2022-07-03T00:38:52;6.47;;;1.80;;
15312;SDS011;7757;52.626;4.746;2022-07-03T00:41:26;6.45;;;1.55;;
15312;SDS011;7757;52.626;4.746;2022-07-03T00:46:21;6.28;;;1.52;;
15312;SDS011;7757;52.626;4.746;2022-07-03T00:48:49;5.53;;;1.63;;
15312;SDS011;7757;52.626;4.746;2022-07-03T00:51:18;8.18;;;1.70;;
15312;SDS011;7757;52.626;4.746;2022-07-03T00:53:50;6.80;;;1.70;;
15312;SDS011;7757;52.626;4.746;2022-07-03T00:56:19;4.50;;;1.60;;
15312;SDS011;7757;52.626;4.746;2022-07-03T00:58:49;4.35;;;1.50;;
15312;SDS011;7757;52.626;4.746;2022-07-03T01:01:18;6.45;;;1.60;;
15312;SDS011;7757;52.626;4.746;2022-07-03T01:03:45;6.22;;;1.60;;
15312;SDS011;7757;52.626;4.746;2022-07-03T01:06:13;5.72;;;1.65;;
15312;SDS011;7757;52.626;4.746;2022-07-03T01:08:42;4.93;;;1.40;;
15312;SDS011;7757;52.626;4.746;2022-07-03T01:11:16;6.40;;;1.55;;
15312;SDS011;7757;52.626;4.746;2022-07-03T01:13:52;6.70;;;1.63;;
15312;SDS011;7757;52.626;4.746;2022-07-03T01:16:30;5.93;;;1.58;;
15312;SDS011;7757;52.626;4.746;2022-07-03T01:19:04;5.53;;;1.40;;
15312;SDS011;7757;52.626;4.746;2022-07-03T01:21:39;4.70;;;1.50;;
15312;SDS011;7757;52.626;4.746;2022-07-03T01:24:15;5.55;;;1.50;;
15312;SDS011;7757;52.626;4.746;2022-07-03T01:26:55;4.82;;;1.60;;
15312;SDS011;7757;52.626;4.746;2022-07-03T01:29:25;5.47;;;1.60;;
15312;SDS011;7757;52.626;4.746;2022-07-03T01:31:57;6.88;;;1.60;;
15312;SDS011;7757;52.626;4.746;2022-07-03T01:34:25;5.68;;;1.42;;
15312;SDS011;7757;52.626;4.746;2022-07-03T01:36:59;6.40;;;1.60;;
15312;SDS011;7757;52.626;4.746;2022-07-03T01:39:27;6.00;;;1.50;;
15312;SDS011;7757;52.626;4.746;2022-07-03T01:41:56;6.32;;;1.67;;
15312;SDS011;7757;52.626;4.746;2022-07-03T01:44:25;6.35;;;1.55;;
15312;SDS011;7757;52.626;4.746;2022-07-03T01:46:53;3.67;;;1.30;;
15312;SDS011;7757;52.626;4.746;2022-07-03T01:49:23;4.32;;;1.40;;
15312;SDS011;7757;52.626;4.746;2022-07-03T01:51:52;3.67;;;1.33;;
15312;SDS011;7757;52.626;4.746;2022-07-03T01:54:20;3.70;;;1.33;;
15312;SDS011;7757;52.626;4.746;2022-07-03T01:56:51;4.82;;;1.40;;
15312;SDS011;7757;52.626;4.746;2022-07-03T01:59:20;7.75;;;1.65;;
15312;SDS011;7757;52.626;4.746;2022-07-03T02:01:48;7.53;;;1.50;;
15312;SDS011;7757;52.626;4.746;2022-07-03T02:04:20;3.88;;;1.48;;
15312;SDS011;7757;52.626;4.746;2022-07-03T02:06:50;5.35;;;1.40;;
15312;SDS011;7757;52.626;4.746;2022-07-03T02:09:28;6.07;;;1.30;;
15312;SDS011;7757;52.626;4.746;2022-07-03T02:12:07;5.38;;;1.40;;
15312;SDS011;7757;52.626;4.746;2022-07-03T02:14:39;6.75;;;1.48;;
15312;SDS011;7757;52.626;4.746;2022-07-03T02:17:13;6.13;;;1.30;;
15312;SDS011;7757;52.626;4.746;2022-07-03T02:19:48;4.60;;;1.30;;
15312;SDS011;7757;52.626;4.746;2022-07-03T02:22:19;5.20;;;1.40;;
15312;SDS011;7757;52.626;4.746;2022-07-03T02:24:51;7.53;;;1.30;;
15312;SDS011;7757;52.626;4.746;2022-07-03T02:27:19;6.47;;;1.48;;
15312;SDS011;7757;52.626;4.746;2022-07-03T02:29:51;3.90;;;1.30;;
15312;SDS011;7757;52.626;4.746;2022-07-03T02:32:25;4.57;;;1.33;;
15312;SDS011;7757;52.626;4.746;2022-07-03T02:34:56;3.95;;;1.20;;
15312;SDS011;7757;52.626;4.746;2022-07-03T02:37:28;8.57;;;1.25;;
15312;SDS011;7757;52.626;4.746;2022-07-03T02:39:58;6.57;;;1.25;;
15312;SDS011;7757;52.626;4.746;2022-07-03T02:42:29;5.97;;;1.23;;
15312;SDS011;7757;52.626;4.746;2022-07-03T02:45:03;5.47;;;1.40;;
15312;SDS011;7757;52.626;4.746;2022-07-03T02:47:33;7.85;;;1.23;;
15312;SDS011;7757;52.626;4.746;2022-07-03T02:50:10;5.60;;;1.35;;
15312;SDS011;7757;52.626;4.746;2022-07-03T02:52:42;5.05;;;1.20;;
15312;SDS011;7757;52.626;4.746;2022-07-03T02:55:20;2.85;;;1.00;;
15312;SDS011;7757;52.626;4.746;2022-07-03T02:58:12;4.63;;;1.13;;
15312;SDS011;7757;52.626;4.746;2022-07-03T03:00:49;3.63;;;1.20;;
15312;SDS011;7757;52.626;4.746;2022-07-03T03:03:24;5.05;;;1.20;;
15312;SDS011;7757;52.626;4.746;2022-07-03T03:05:53;6.90;;;1.33;;
15312;SDS011;7757;52.626;4.746;2022-07-03T03:08:29;4.80;;;1.30;;
15312;SDS011;7757;52.626;4.746;2022-07-03T03:11:02;3.50;;;1.20;;
15312;SDS011;7757;52.626;4.746;2022-07-03T03:13:33;4.32;;;1.10;;
15312;SDS011;7757;52.626;4.746;2022-07-03T03:16:04;5.93;;;1.10;;
15312;SDS011;7757;52.626;4.746;2022-07-03T03:18:35;6.40;;;1.42;;
15312;SDS011;7757;52.626;4.746;2022-07-03T03:21:03;5.03;;;1.10;;
15312;SDS011;7757;52.626;4.746;2022-07-03T03:23:35;5.93;;;1.30;;
15312;SDS011;7757;52.626;4.746;2022-07-03T03:26:08;5.78;;;1.10;;
15312;SDS011;7757;52.626;4.746;2022-07-03T03:28:35;4.43;;;1.27;;
15312;SDS011;7757;52.626;4.746;2022-07-03T03:31:01;5.15;;;1.27;;
15312;SDS011;7757;52.626;4.746;2022-07-03T03:33:34;3.15;;;1.00;;
15312;SDS011;7757;52.626;4.746;2022-07-03T03:36:04;4.45;;;1.20;;
15312;SDS011;7757;52.626;4.746;2022-07-03T03:38:32;4.82;;;1.08;;
15312;SDS011;7757;52.626;4.746;2022-07-03T03:40:58;3.25;;;1.10;;
15312;SDS011;7757;52.626;4.746;2022-07-03T03:43:25;5.22;;;1.10;;
15312;SDS011;7757;52.626;4.746;2022-07-03T03:45:52;4.20;;;0.98;;
15312;SDS011;7757;52.626;4.746;2022-07-03T03:48:18;4.15;;;1.20;;
15312;SDS011;7757;52.626;4.746;2022-07-03T03:50:46;4.30;;;1.20;;
15312;SDS011;7757;52.626;4.746;2022-07-03T03:53:12;5.85;;;1.30;;
15312;SDS011;7757;52.626;4.746;2022-07-03T03:55:52;6.97;;;1.20;;
15312;SDS011;7757;52.626;4.746;2022-07-03T03:58:19;5.88;;;1.38;;
15312;SDS011;7757;52.626;4.746;2022-07-03T04:00:46;6.55;;;1.30;;
15312;SDS011;7757;52.626;4.746;2022-07-03T04:03:12;9.15;;;1.40;;
15312;SDS011;7757;52.626;4.746;2022-07-03T04:05:39;8.68;;;1.40;;
15312;SDS011;7757;52.626;4.746;2022-07-03T04:08:07;7.60;;;1.75;;
15312;SDS011;7757;52.626;4.746;2022-07-03T04:10:33;5.90;;;1.30;;
15312;SDS011;7757;52.626;4.746;2022-07-03T04:13:00;7.30;;;1.67;;
15312;SDS011;7757;52.626;4.746;2022-07-03T04:15:26;8.93;;;1.92;;
15312;SDS011;7757;52.626;4.746;2022-07-03T04:17:53;8.00;;;1.40;;
15312;SDS011;7757;52.626;4.746;2022-07-03T04:20:19;5.82;;;1.38;;
15312;SDS011;7757;52.626;4.746;2022-07-03T04:22:46;8.90;;;1.50;;
15312;SDS011;7757;52.626;4.746;2022-07-03T04:25:16;9.15;;;1.65;;
15312;SDS011;7757;52.626;4.746;2022-07-03T04:27:43;8.05;;;1.70;;
15312;SDS011;7757;52.626;4.746;2022-07-03T04:30:10;8.68;;;1.63;;
15312;SDS011;7757;52.626;4.746;2022-07-03T04:32:38;7.05;;;1.40;;
15312;SDS011;7757;52.626;4.746;2022-07-03T04:35:05;10.00;;;1.80;;
15312;SDS011;7757;52.626;4.746;2022-07-03T04:37:32;8.43;;;1.40;;
15312;SDS011;7757;52.626;4.746;2022-07-03T04:39:59;7.38;;;1.60;;
15312;SDS011;7757;52.626;4.746;2022-07-03T04:42:26;10.02;;;1.40;;
15312;SDS011;7757;52.626;4.746;2022-07-03T04:44:53;8.32;;;2.05;;
15312;SDS011;7757;52.626;4.746;2022-07-03T04:47:19;7.22;;;1.67;;
15312;SDS011;7757;52.626;4.746;2022-07-03T04:49:46;8.25;;;1.50;;
15312;SDS011;7757;52.626;4.746;2022-07-03T04:52:13;6.53;;;1.50;;
15312;SDS011;7757;52.626;4.746;2022-07-03T04:54:39;8.55;;;1.40;;
15312;SDS011;7757;52.626;4.746;2022-07-03T04:57:06;8.55;;;1.60;;
15312;SDS011;7757;52.626;4.746;2022-07-03T04:59:34;9.43;;;1.70;;
15312;SDS011;7757;52.626;4.746;2022-07-03T05:02:01;9.50;;;1.58;;
15312;SDS011;7757;52.626;4.746;2022-07-03T05:04:27;11.70;;;1.80;;
15312;SDS011;7757;52.626;4.746;2022-07-03T05:06:54;9.10;;;1.65;;
15312;SDS011;7757;52.626;4.746;2022-07-03T05:09:20;11.02;;;1.60;;
15312;SDS011;7757;52.626;4.746;2022-07-03T05:11:47;9.68;;;1.55;;
15312;SDS011;7757;52.626;4.746;2022-07-03T05:14:13;12.32;;;1.73;;
15312;SDS011;7757;52.626;4.746;2022-07-03T05:16:41;8.07;;;1.80;;
15312;SDS011;7757;52.626;4.746;2022-07-03T05:19:08;7.53;;;1.77;;
15312;SDS011;7757;52.626;4.746;2022-07-03T05:21:34;9.57;;;1.70;;
15312;SDS011;7757;52.626;4.746;2022-07-03T05:24:01;7.82;;;1.58;;
15312;SDS011;7757;52.626;4.746;2022-07-03T05:26:27;9.52;;;2.00;;
15312;SDS011;7757;52.626;4.746;2022-07-03T05:28:53;10.93;;;2.00;;
15312;SDS011;7757;52.626;4.746;2022-07-03T05:31:20;12.32;;;1.95;;
15312;SDS011;7757;52.626;4.746;2022-07-03T05:33:48;10.07;;;1.92;;
15312;SDS011;7757;52.626;4.746;2022-07-03T05:36:14;14.38;;;2.08;;
15312;SDS011;7757;52.626;4.746;2022-07-03T05:38:41;10.68;;;1.70;;
15312;SDS011;7757;52.626;4.746;2022-07-03T05:41:25;11.57;;;1.85;;
15312;SDS011;7757;52.626;4.746;2022-07-03T05:43:51;8.73;;;1.80;;
15312;SDS011;7757;52.626;4.746;2022-07-03T05:46:18;10.73;;;1.90;;
15312;SDS011;7757;52.626;4.746;2022-07-03T05:48:44;11.20;;;1.80;;
15312;SDS011;7757;52.626;4.746;2022-07-03T05:51:12;12.02;;;2.03;;
15312;SDS011;7757;52.626;4.746;2022-07-03T05:53:39;11.10;;;2.00;;
15312;SDS011;7757;52.626;4.746;2022-07-03T05:56:05;12.95;;;2.15;;
15312;SDS011;7757;52.626;4.746;2022-07-03T05:58:32;10.38;;;2.15;;
15312;SDS011;7757;52.626;4.746;2022-07-03T06:00:58;11.48;;;2.20;;
15312;SDS011;7757;52.626;4.746;2022-07-03T06:03:25;13.48;;;2.00;;
15312;SDS011;7757;52.626;4.746;2022-07-03T06:05:51;10.25;;;1.75;;
15312;SDS011;7757;52.626;4.746;2022-07-03T06:08:19;11.52;;;2.20;;
15312;SDS011;7757;52.626;4.746;2022-07-03T06:10:45;9.02;;;1.65;;
15312;SDS011;7757;52.626;4.746;2022-07-03T06:13:12;12.60;;;2.10;;
15312;SDS011;7757;52.626;4.746;2022-07-03T06:15:38;13.00;;;1.80;;
15312;SDS011;7757;52.626;4.746;2022-07-03T06:18:05;10.50;;;1.77;;
15312;SDS011;7757;52.626;4.746;2022-07-03T06:20:31;7.72;;;1.67;;
15312;SDS011;7757;52.626;4.746;2022-07-03T06:22:58;8.95;;;1.55;;
15312;SDS011;7757;52.626;4.746;2022-07-03T06:25:26;10.15;;;1.70;;
15312;SDS011;7757;52.626;4.746;2022-07-03T06:27:52;8.02;;;1.50;;
15312;SDS011;7757;52.626;4.746;2022-07-03T06:30:19;8.38;;;1.35;;
15312;SDS011;7757;52.626;4.746;2022-07-03T06:32:45;9.05;;;1.70;;
15312;SDS011;7757;52.626;4.746;2022-07-03T06:35:12;22.90;;;3.40;;
15312;SDS011;7757;52.626;4.746;2022-07-03T06:37:38;15.35;;;2.55;;
15312;SDS011;7757;52.626;4.746;2022-07-03T06:40:05;18.23;;;2.92;;
15312;SDS011;7757;52.626;4.746;2022-07-03T06:42:34;15.18;;;1.95;;
15312;SDS011;7757;52.626;4.746;2022-07-03T06:45:00;12.48;;;1.95;;
15312;SDS011;7757;52.626;4.746;2022-07-03T06:47:27;10.05;;;1.83;;
15312;SDS011;7757;52.626;4.746;2022-07-03T06:49:53;10.85;;;1.90;;
15312;SDS011;7757;52.626;4.746;2022-07-03T06:52:20;9.20;;;1.80;;
15312;SDS011;7757;52.626;4.746;2022-07-03T06:54:46;8.38;;;1.50;;
15312;SDS011;7757;52.626;4.746;2022-07-03T06:57:13;9.30;;;1.50;;
15312;SDS011;7757;52.626;4.746;2022-07-03T06:59:41;6.60;;;1.48;;
15312;SDS011;7757;52.626;4.746;2022-07-03T07:02:07;9.80;;;1.70;;
15312;SDS011;7757;52.626;4.746;2022-07-03T07:04:34;7.32;;;1.65;;
15312;SDS011;7757;52.626;4.746;2022-07-03T07:07:00;11.10;;;1.75;;
15312;SDS011;7757;52.626;4.746;2022-07-03T07:09:27;6.45;;;1.50;;
15312;SDS011;7757;52.626;4.746;2022-07-03T07:11:53;6.72;;;1.30;;
15312;SDS011;7757;52.626;4.746;2022-07-03T07:14:20;11.95;;;1.98;;
15312;SDS011;7757;52.626;4.746;2022-07-03T07:16:47;5.65;;;1.30;;
15312;SDS011;7757;52.626;4.746;2022-07-03T07:19:14;10.10;;;1.70;;
15312;SDS011;7757;52.626;4.746;2022-07-03T07:21:40;4.90;;;1.13;;
15312;SDS011;7757;52.626;4.746;2022-07-03T07:24:07;4.50;;;1.40;;
15312;SDS011;7757;52.626;4.746;2022-07-03T07:26:34;9.00;;;1.75;;
15312;SDS011;7757;52.626;4.746;2022-07-03T07:29:00;8.68;;;1.50;;
15312;SDS011;7757;52.626;4.746;2022-07-03T07:31:26;8.50;;;1.50;;
15312;SDS011;7757;52.626;4.746;2022-07-03T07:33:54;8.77;;;1.50;;
15312;SDS011;7757;52.626;4.746;2022-07-03T07:36:21;5.50;;;1.30;;
15312;SDS011;7757;52.626;4.746;2022-07-03T07:38:47;7.55;;;1.50;;
15312;SDS011;7757;52.626;4.746;2022-07-03T07:41:14;6.38;;;1.30;;
15312;SDS011;7757;52.626;4.746;2022-07-03T07:43:41;5.45;;;1.20;;
15312;SDS011;7757;52.626;4.746;2022-07-03T07:46:07;7.10;;;1.40;;
15312;SDS011;7757;52.626;4.746;2022-07-03T07:48:34;10.18;;;1.70;;
15312;SDS011;7757;52.626;4.746;2022-07-03T07:51:02;7.38;;;1.40;;
15312;SDS011;7757;52.626;4.746;2022-07-03T07:53:29;10.02;;;1.50;;
15312;SDS011;7757;52.626;4.746;2022-07-03T07:55:55;7.88;;;1.60;;
15312;SDS011;7757;52.626;4.746;2022-07-03T07:58:21;7.28;;;1.48;;
15312;SDS011;7757;52.626;4.746;2022-07-03T08:00:48;8.00;;;1.48;;
15312;SDS011;7757;52.626;4.746;2022-07-03T08:03:32;5.40;;;1.27;;
15312;SDS011;7757;52.626;4.746;2022-07-03T08:06:18;6.63;;;1.48;;
15312;SDS011;7757;52.626;4.746;2022-07-03T08:08:44;5.88;;;1.50;;
15312;SDS011;7757;52.626;4.746;2022-07-03T08:11:11;5.57;;;1.33;;
15312;SDS011;7757;52.626;4.746;2022-07-03T08:13:37;5.40;;;1.30;;
15312;SDS011;7757;52.626;4.746;2022-07-03T08:16:04;5.15;;;1.40;;
15312;SDS011;7757;52.626;4.746;2022-07-03T08:18:31;4.53;;;1.30;;
15312;SDS011;7757;52.626;4.746;2022-07-03T08:20:57;6.72;;;1.63;;
15312;SDS011;7757;52.626;4.746;2022-07-03T08:23:26;7.32;;;1.30;;
15312;SDS011;7757;52.626;4.746;2022-07-03T08:25:52;7.95;;;1.42;;
15312;SDS011;7757;52.626;4.746;2022-07-03T08:28:19;6.32;;;1.45;;
15312;SDS011;7757;52.626;4.746;2022-07-03T08:30:45;7.97;;;1.80;;
15312;SDS011;7757;52.626;4.746;2022-07-03T08:33:12;6.22;;;1.50;;
15312;SDS011;7757;52.626;4.746;2022-07-03T08:35:38;6.47;;;1.60;;
15312;SDS011;7757;52.626;4.746;2022-07-03T08:38:05;8.80;;;1.55;;
15312;SDS011;7757;52.626;4.746;2022-07-03T08:40:33;6.47;;;1.42;;
15312;SDS011;7757;52.626;4.746;2022-07-03T08:43:00;7.32;;;1.55;;
15312;SDS011;7757;52.626;4.746;2022-07-03T08:45:29;6.47;;;1.60;;
15312;SDS011;7757;52.626;4.746;2022-07-03T08:47:57;8.40;;;1.80;;
15312;SDS011;7757;52.626;4.746;2022-07-03T08:50:25;8.27;;;1.60;;
15312;SDS011;7757;52.626;4.746;2022-07-03T08:52:51;8.30;;;1.55;;
15312;SDS011;7757;52.626;4.746;2022-07-03T08:55:18;9.27;;;1.88;;
15312;SDS011;7757;52.626;4.746;2022-07-03T08:57:48;6.72;;;1.52;;
15312;SDS011;7757;52.626;4.746;2022-07-03T09:00:15;9.52;;;1.65;;
15312;SDS011;7757;52.626;4.746;2022-07-03T09:02:43;8.20;;;1.90;;
15312;SDS011;7757;52.626;4.746;2022-07-03T09:05:11;7.68;;;1.60;;
15312;SDS011;7757;52.626;4.746;2022-07-03T09:07:39;7.63;;;1.52;;
15312;SDS011;7757;52.626;4.746;2022-07-03T09:10:09;7.15;;;1.65;;
15312;SDS011;7757;52.626;4.746;2022-07-03T09:12:37;4.03;;;1.30;;
15312;SDS011;7757;52.626;4.746;2022-07-03T09:15:06;5.55;;;1.40;;
15312;SDS011;7757;52.626;4.746;2022-07-03T09:17:34;5.93;;;1.63;;
15312;SDS011;7757;52.626;4.746;2022-07-03T09:20:03;3.65;;;1.50;;
15312;SDS011;7757;52.626;4.746;2022-07-03T09:22:31;5.72;;;1.38;;
15312;SDS011;7757;52.626;4.746;2022-07-03T09:25:03;8.20;;;1.70;;
15312;SDS011;7757;52.626;4.746;2022-07-03T09:27:31;6.30;;;1.35;;
15312;SDS011;7757;52.626;4.746;2022-07-03T09:29:59;7.32;;;1.58;;
15312;SDS011;7757;52.626;4.746;2022-07-03T09:32:31;6.15;;;1.50;;
15312;SDS011;7757;52.626;4.746;2022-07-03T09:37:48;5.30;;;1.20;;
15312;SDS011;7757;52.626;4.746;2022-07-03T09:40:16;5.40;;;1.40;;
15312;SDS011;7757;52.626;4.746;2022-07-03T09:42:56;6.72;;;1.60;;
15312;SDS011;7757;52.626;4.746;2022-07-03T09:45:23;5.80;;;1.50;;
15312;SDS011;7757;52.626;4.746;2022-07-03T09:47:51;5.07;;;1.38;;
15312;SDS011;7757;52.626;4.746;2022-07-03T09:50:18;8.77;;;1.50;;
15312;SDS011;7757;52.626;4.746;2022-07-03T09:52:45;5.25;;;1.40;;
15312;SDS011;7757;52.626;4.746;2022-07-03T09:55:14;5.57;;;1.38;;
15312;SDS011;7757;52.626;4.746;2022-07-03T09:57:43;7.68;;;1.50;;
15312;SDS011;7757;52.626;4.746;2022-07-03T10:00:12;5.63;;;1.45;;
15312;SDS011;7757;52.626;4.746;2022-07-03T10:02:57;4.63;;;1.30;;
15312;SDS011;7757;52.626;4.746;2022-07-03T10:05:26;4.00;;;1.10;;
15312;SDS011;7757;52.626;4.746;2022-07-03T10:07:56;4.70;;;1.20;;
15312;SDS011;7757;52.626;4.746;2022-07-03T10:10:24;7.88;;;1.35;;
15312;SDS011;7757;52.626;4.746;2022-07-03T10:12:52;7.78;;;1.30;;
15312;SDS011;7757;52.626;4.746;2022-07-03T10:15:20;6.25;;;1.70;;
15312;SDS011;7757;52.626;4.746;2022-07-03T10:17:48;8.73;;;1.50;;
15312;SDS011;7757;52.626;4.746;2022-07-03T10:20:27;5.30;;;1.30;;
15312;SDS011;7757;52.626;4.746;2022-07-03T10:22:55;5.70;;;1.30;;
15312;SDS011;7757;52.626;4.746;2022-07-03T10:25:22;5.35;;;1.40;;
15312;SDS011;7757;52.626;4.746;2022-07-03T10:27:49;5.90;;;1.40;;
15312;SDS011;7757;52.626;4.746;2022-07-03T10:30:16;4.13;;;1.10;;
15312;SDS011;7757;52.626;4.746;2022-07-03T10:32:44;3.45;;;1.25;;
15312;SDS011;7757;52.626;4.746;2022-07-03T10:35:13;3.25;;;1.10;;
15312;SDS011;7757;52.626;4.746;2022-07-03T10:37:46;4.95;;;1.40;;
15312;SDS011;7757;52.626;4.746;2022-07-03T10:40:24;4.57;;;1.20;;
15312;SDS011;7757;52.626;4.746;2022-07-03T10:43:18;6.05;;;1.25;;
15312;SDS011;7757;52.626;4.746;2022-07-03T10:46:09;5.00;;;1.20;;
15312;SDS011;7757;52.626;4.746;2022-07-03T10:51:23;3.20;;;1.00;;
15312;SDS011;7757;52.626;4.746;2022-07-03T10:53:52;3.42;;;1.20;;
15312;SDS011;7757;52.626;4.746;2022-07-03T10:59:55;5.45;;;1.23;;
15312;SDS011;7757;52.626;4.746;2022-07-03T11:02:27;6.70;;;1.40;;
15312;SDS011;7757;52.626;4.746;2022-07-03T11:05:06;9.45;;;2.20;;
15312;SDS011;7757;52.626;4.746;2022-07-03T11:10:38;13.35;;;2.70;;
15312;SDS011;7757;52.626;4.746;2022-07-03T11:13:10;11.25;;;2.70;;
15312;SDS011;7757;52.626;4.746;2022-07-03T11:15:41;13.27;;;2.45;;
15312;SDS011;7757;52.626;4.746;2022-07-03T11:18:12;12.38;;;2.10;;
15312;SDS011;7757;52.626;4.746;2022-07-03T11:20:55;8.98;;;1.92;;
15312;SDS011;7757;52.626;4.746;2022-07-03T11:23:43;8.48;;;1.60;;
15312;SDS011;7757;52.626;4.746;2022-07-03T11:26:22;8.10;;;1.70;;
15312;SDS011;7757;52.626;4.746;2022-07-03T11:28:50;6.28;;;1.80;;
15312;SDS011;7757;52.626;4.746;2022-07-03T11:31:18;9.38;;;1.60;;
15312;SDS011;7757;52.626;4.746;2022-07-03T11:33:46;5.75;;;1.35;;
15312;SDS011;7757;52.626;4.746;2022-07-03T11:36:22;7.85;;;1.60;;
15312;SDS011;7757;52.626;4.746;2022-07-03T11:38:53;8.90;;;1.60;;
15312;SDS011;7757;52.626;4.746;2022-07-03T11:41:43;9.05;;;2.15;;
15312;SDS011;7757;52.626;4.746;2022-07-03T11:44:14;5.40;;;1.40;;
15312;SDS011;7757;52.626;4.746;2022-07-03T11:46:46;6.15;;;1.40;;
15312;SDS011;7757;52.626;4.746;2022-07-03T11:49:15;2.80;;;1.00;;
15312;SDS011;7757;52.626;4.746;2022-07-03T11:51:43;5.15;;;1.10;;
15312;SDS011;7757;52.626;4.746;2022-07-03T11:54:19;4.22;;;1.17;;
15312;SDS011;7757;52.626;4.746;2022-07-03T11:56:47;3.88;;;1.20;;
15312;SDS011;7757;52.626;4.746;2022-07-03T11:59:14;4.60;;;1.10;;
15312;SDS011;7757;52.626;4.746;2022-07-03T12:01:40;6.03;;;1.20;;
15312;SDS011;7757;52.626;4.746;2022-07-03T12:04:07;5.25;;;1.10;;
15312;SDS011;7757;52.626;4.746;2022-07-03T12:06:35;4.45;;;1.05;;
15312;SDS011;7757;52.626;4.746;2022-07-03T12:09:03;4.18;;;1.10;;
15312;SDS011;7757;52.626;4.746;2022-07-03T12:11:38;5.28;;;1.17;;
15312;SDS011;7757;52.626;4.746;2022-07-03T12:14:06;5.22;;;1.40;;
15312;SDS011;7757;52.626;4.746;2022-07-03T12:16:33;4.05;;;0.98;;
15312;SDS011;7757;52.626;4.746;2022-07-03T12:19:03;7.68;;;1.33;;
15312;SDS011;7757;52.626;4.746;2022-07-03T12:21:35;5.15;;;1.20;;
15312;SDS011;7757;52.626;4.746;2022-07-03T12:24:08;4.53;;;1.10;;
15312;SDS011;7757;52.626;4.746;2022-07-03T12:26:36;6.80;;;1.13;;
15312;SDS011;7757;52.626;4.746;2022-07-03T12:29:03;5.43;;;1.10;;
15312;SDS011;7757;52.626;4.746;2022-07-03T12:31:34;3.25;;;1.08;;
15312;SDS011;7757;52.626;4.746;2022-07-03T12:34:01;6.80;;;1.38;;
15312;SDS011;7757;52.626;4.746;2022-07-03T12:36:28;6.35;;;1.30;;
15312;SDS011;7757;52.626;4.746;2022-07-03T12:38:55;4.70;;;1.35;;
15312;SDS011;7757;52.626;4.746;2022-07-03T12:41:23;5.65;;;1.20;;
15312;SDS011;7757;52.626;4.746;2022-07-03T12:43:51;2.80;;;1.08;;
15312;SDS011;7757;52.626;4.746;2022-07-03T12:46:19;2.90;;;1.00;;
15312;SDS011;7757;52.626;4.746;2022-07-03T12:48:49;4.55;;;1.40;;
15312;SDS011;7757;52.626;4.746;2022-07-03T12:51:35;5.95;;;1.40;;
15312;SDS011;7757;52.626;4.746;2022-07-03T12:54:05;4.93;;;1.10;;
15312;SDS011;7757;52.626;4.746;2022-07-03T12:56:32;6.65;;;1.33;;
15312;SDS011;7757;52.626;4.746;2022-07-03T12:58:59;4.90;;;1.17;;
15312;SDS011;7757;52.626;4.746;2022-07-03T13:01:43;5.07;;;1.20;;
15312;SDS011;7757;52.626;4.746;2022-07-03T13:04:12;6.38;;;1.73;;
15312;SDS011;7757;52.626;4.746;2022-07-03T13:06:43;8.75;;;1.60;;
15312;SDS011;7757;52.626;4.746;2022-07-03T13:09:11;7.35;;;1.70;;
15312;SDS011;7757;52.626;4.746;2022-07-03T13:11:38;5.93;;;1.40;;
15312;SDS011;7757;52.626;4.746;2022-07-03T13:14:07;4.13;;;1.20;;
15312;SDS011;7757;52.626;4.746;2022-07-03T13:16:36;8.43;;;1.45;;
15312;SDS011;7757;52.626;4.746;2022-07-03T13:19:04;3.03;;;1.30;;
15312;SDS011;7757;52.626;4.746;2022-07-03T13:21:33;8.13;;;1.50;;
15312;SDS011;7757;52.626;4.746;2022-07-03T13:24:01;6.88;;;1.40;;
15312;SDS011;7757;52.626;4.746;2022-07-03T13:26:27;7.90;;;1.55;;
15312;SDS011;7757;52.626;4.746;2022-07-03T13:28:54;5.93;;;1.40;;
15312;SDS011;7757;52.626;4.746;2022-07-03T13:31:21;8.07;;;1.58;;
15312;SDS011;7757;52.626;4.746;2022-07-03T13:33:47;4.95;;;1.40;;
15312;SDS011;7757;52.626;4.746;2022-07-03T13:36:14;8.60;;;1.65;;
15312;SDS011;7757;52.626;4.746;2022-07-03T13:38:43;8.65;;;1.52;;
15312;SDS011;7757;52.626;4.746;2022-07-03T13:41:10;7.25;;;1.48;;
15312;SDS011;7757;52.626;4.746;2022-07-03T13:43:37;8.88;;;1.60;;
15312;SDS011;7757;52.626;4.746;2022-07-03T13:46:03;6.95;;;1.67;;
15312;SDS011;7757;52.626;4.746;2022-07-03T13:48:30;7.45;;;1.70;;
15312;SDS011;7757;52.626;4.746;2022-07-03T13:50:56;8.77;;;1.67;;
15312;SDS011;7757;52.626;4.746;2022-07-03T13:53:23;9.35;;;1.90;;
15312;SDS011;7757;52.626;4.746;2022-07-03T13:55:51;6.72;;;1.52;;
15312;SDS011;7757;52.626;4.746;2022-07-03T13:58:19;6.38;;;1.50;;
15312;SDS011;7757;52.626;4.746;2022-07-03T14:00:46;8.77;;;1.58;;
15312;SDS011;7757;52.626;4.746;2022-07-03T14:03:12;6.57;;;1.70;;
15312;SDS011;7757;52.626;4.746;2022-07-03T14:05:40;7.55;;;1.65;;
15312;SDS011;7757;52.626;4.746;2022-07-03T14:08:06;3.97;;;1.40;;
15312;SDS011;7757;52.626;4.746;2022-07-03T14:10:33;6.05;;;1.33;;
15312;SDS011;7757;52.626;4.746;2022-07-03T14:13:01;6.13;;;1.40;;
15312;SDS011;7757;52.626;4.746;2022-07-03T14:15:27;8.70;;;1.80;;
15312;SDS011;7757;52.626;4.746;2022-07-03T14:17:54;7.82;;;1.98;;
15312;SDS011;7757;52.626;4.746;2022-07-03T14:20:24;7.38;;;1.88;;
15312;SDS011;7757;52.626;4.746;2022-07-03T14:22:51;6.03;;;1.70;;
15312;SDS011;7757;52.626;4.746;2022-07-03T14:25:18;7.07;;;1.80;;
15312;SDS011;7757;52.626;4.746;2022-07-03T14:27:44;7.13;;;1.90;;
15312;SDS011;7757;52.626;4.746;2022-07-03T14:33:14;7.13;;;1.70;;
15312;SDS011;7757;52.626;4.746;2022-07-03T14:35:41;7.53;;;1.73;;
15312;SDS011;7757;52.626;4.746;2022-07-03T14:38:07;7.43;;;1.75;;
15312;SDS011;7757;52.626;4.746;2022-07-03T14:40:34;7.55;;;1.80;;
15312;SDS011;7757;52.626;4.746;2022-07-03T14:43:00;6.13;;;1.60;;
15312;SDS011;7757;52.626;4.746;2022-07-03T14:45:27;8.93;;;1.90;;
15312;SDS011;7757;52.626;4.746;2022-07-03T14:47:55;6.28;;;1.70;;
15312;SDS011;7757;52.626;4.746;2022-07-03T14:50:22;10.27;;;1.88;;
15312;SDS011;7757;52.626;4.746;2022-07-03T14:52:48;9.13;;;1.90;;
15312;SDS011;7757;52.626;4.746;2022-07-03T14:55:15;10.05;;;2.40;;
15312;SDS011;7757;52.626;4.746;2022-07-03T14:57:42;7.63;;;2.00;;
15312;SDS011;7757;52.626;4.746;2022-07-03T15:00:15;8.52;;;2.00;;
15312;SDS011;7757;52.626;4.746;2022-07-03T15:02:48;10.55;;;2.45;;
15312;SDS011;7757;52.626;4.746;2022-07-03T15:05:16;7.35;;;1.80;;
15312;SDS011;7757;52.626;4.746;2022-07-03T15:07:44;7.05;;;1.70;;
15312;SDS011;7757;52.626;4.746;2022-07-03T15:10:23;9.00;;;1.90;;
15312;SDS011;7757;52.626;4.746;2022-07-03T15:12:50;8.90;;;1.95;;
15312;SDS011;7757;52.626;4.746;2022-07-03T15:15:18;10.00;;;1.90;;
15312;SDS011;7757;52.626;4.746;2022-07-03T15:17:48;6.63;;;1.63;;
15312;SDS011;7757;52.626;4.746;2022-07-03T15:20:18;5.88;;;1.80;;
15312;SDS011;7757;52.626;4.746;2022-07-03T15:22:46;8.05;;;1.85;;
15312;SDS011;7757;52.626;4.746;2022-07-03T15:25:16;11.55;;;2.08;;
15312;SDS011;7757;52.626;4.746;2022-07-03T15:27:44;7.65;;;1.60;;
15312;SDS011;7757;52.626;4.746;2022-07-03T15:30:15;7.88;;;1.90;;